createdAt,value
2023-01-11T00:01:57.217Z,99763.06
2023-01-11T00:04:30.512Z,99766.34
2023-01-11T00:06:59.646Z,99766.84
2023-01-11T00:09:28.013Z,99763.78
2023-01-11T00:11:56.409Z,99763.69
2023-01-11T00:14:25.439Z,99766.91
2023-01-11T00:16:54.139Z,99764.91
2023-01-11T00:19:22.473Z,99763.75
2023-01-11T00:21:52.244Z,99765.34
2023-01-11T00:24:20.671Z,99764.97
2023-01-11T00:26:49.059Z,99767.63
2023-01-11T00:29:17.635Z,99760.97
2023-01-11T00:31:46.021Z,99755.97
2023-01-11T00:34:14.417Z,99748.28
2023-01-11T00:36:43.038Z,99747.91
2023-01-11T00:39:12.762Z,99747.59
2023-01-11T00:41:58.796Z,99747.50
2023-01-11T00:44:44.666Z,99743.00
2023-01-11T00:47:33.682Z,99742.34
2023-01-11T00:50:02.269Z,99749.88
2023-01-11T00:52:30.645Z,99749.75
2023-01-11T00:55:00.371Z,99754.06
2023-01-11T00:57:28.733Z,99754.56
2023-01-11T00:59:57.096Z,99754.44
2023-01-11T01:02:25.507Z,99756.84
2023-01-11T01:04:53.868Z,99757.31
2023-01-11T01:07:22.340Z,99759.47
2023-01-11T01:09:50.734Z,99761.84
2023-01-11T01:12:34.338Z,99750.81
2023-01-11T01:15:02.686Z,99749.63
2023-01-11T01:17:31.104Z,99743.81
2023-01-11T01:19:59.492Z,99739.91
2023-01-11T01:22:27.885Z,99746.88
2023-01-11T01:24:56.266Z,99744.66
2023-01-11T01:27:26.049Z,99746.19
2023-01-11T01:29:54.440Z,99741.69
2023-01-11T01:32:22.891Z,99743.00
2023-01-11T01:34:51.296Z,99743.72
2023-01-11T01:37:19.656Z,99739.78
2023-01-11T01:39:47.984Z,99736.69
2023-01-11T01:42:18.990Z,99743.72
2023-01-11T01:45:18.038Z,99736.50
2023-01-11T01:47:50.526Z,99735.06
2023-01-11T01:50:24.452Z,99736.63
2023-01-11T01:52:58.576Z,99730.78
2023-01-11T01:55:31.929Z,99733.75
2023-01-11T01:58:02.516Z,99729.59
2023-01-11T02:00:33.173Z,99724.59
2023-01-11T02:03:03.140Z,99722.94
2023-01-11T02:05:32.068Z,99727.00
2023-01-11T02:08:04.097Z,99727.19
2023-01-11T02:10:34.918Z,99729.34
2023-01-11T02:13:06.867Z,99727.91
2023-01-11T02:15:37.699Z,99723.75
2023-01-11T02:18:11.279Z,99725.09
2023-01-11T02:21:09.145Z,99718.41
2023-01-11T02:24:20.047Z,99716.16
2023-01-11T02:27:25.640Z,99720.44
2023-01-11T02:30:15.544Z,99709.16
2023-01-11T02:32:57.960Z,99712.94
2023-01-11T02:35:40.833Z,99714.25
2023-01-11T02:38:16.646Z,99705.22
2023-01-11T02:41:00.161Z,99696.44
2023-01-11T02:43:51.797Z,99691.19
2023-01-11T02:46:30.924Z,99689.16
2023-01-11T02:49:09.630Z,99693.00
2023-01-11T02:51:44.001Z,99695.94
2023-01-11T02:54:17.339Z,99698.91
2023-01-11T02:56:50.209Z,99696.44
2023-01-11T02:59:24.004Z,99688.44
2023-01-11T03:01:56.117Z,99691.44
2023-01-11T03:04:31.413Z,99682.63
2023-01-11T03:07:21.844Z,99686.66
2023-01-11T03:10:09.360Z,99687.13
2023-01-11T03:12:55.144Z,99682.97
2023-01-11T03:15:45.581Z,99685.34
2023-01-11T03:18:32.079Z,99686.06
2023-01-11T03:21:14.295Z,99694.47
2023-01-11T03:23:53.311Z,99692.22
2023-01-11T03:26:34.189Z,99689.72
2023-01-11T03:29:12.482Z,99688.28
2023-01-11T03:31:49.100Z,99681.16
2023-01-11T03:34:29.833Z,99680.56
2023-01-11T03:37:04.528Z,99681.88
2023-01-11T03:39:38.457Z,99675.81
2023-01-11T03:42:10.439Z,99678.75
2023-01-11T03:44:45.756Z,99681.16
2023-01-11T03:47:18.187Z,99682.19
2023-01-11T03:49:53.105Z,99678.28
2023-01-11T03:52:26.884Z,99682.91
2023-01-11T03:54:57.224Z,99677.69
2023-01-11T03:57:32.150Z,99682.31
2023-01-11T04:00:01.082Z,99679.81
2023-01-11T04:02:36.857Z,99681.72
2023-01-11T04:05:08.164Z,99677.31
2023-01-11T04:07:36.682Z,99683.00
2023-01-11T04:10:06.056Z,99678.63
2023-01-11T04:12:34.483Z,99677.78
2023-01-11T04:15:03.250Z,99670.88
2023-01-11T04:17:32.001Z,99672.78
2023-01-11T04:20:00.414Z,99676.59
2023-01-11T04:22:30.145Z,99677.88
2023-01-11T04:24:58.501Z,99675.63
2023-01-11T04:27:26.842Z,99676.91
2023-01-11T04:29:55.203Z,99664.56
2023-01-11T04:32:23.608Z,99665.84
2023-01-11T04:34:52.031Z,99660.63
2023-01-11T04:37:20.392Z,99667.13
2023-01-11T04:39:50.138Z,99666.53
2023-01-11T04:42:21.574Z,99673.09
2023-01-11T04:44:51.703Z,99663.47
2023-01-11T04:47:24.169Z,99665.31
2023-01-11T04:49:52.976Z,99661.75
2023-01-11T04:52:22.037Z,99652.72
2023-01-11T04:54:52.581Z,99649.19
2023-01-11T04:57:21.021Z,99644.78
2023-01-11T04:59:49.945Z,99644.78
2023-01-11T05:02:18.754Z,99642.06
2023-01-11T05:04:47.151Z,99649.19
2023-01-11T05:07:15.518Z,99650.84
2023-01-11T05:09:43.924Z,99645.38
2023-01-11T05:12:13.685Z,99640.16
2023-01-11T05:14:42.057Z,99642.28
2023-01-11T05:17:15.322Z,99624.47
2023-01-11T05:19:44.451Z,99630.16
2023-01-11T05:22:12.838Z,99627.06
2023-01-11T05:24:41.250Z,99618.28
2023-01-11T05:27:09.667Z,99620.63
2023-01-11T05:29:39.476Z,99620.50
2023-01-11T05:32:08.042Z,99628.91
2023-01-11T05:34:36.758Z,99632.94
2023-01-11T05:37:05.157Z,99632.13
2023-01-11T05:39:33.570Z,99639.22
2023-01-11T05:42:01.998Z,99644.44
2023-01-11T05:44:47.674Z,99645.53
2023-01-11T05:47:17.498Z,99643.84
2023-01-11T05:49:45.856Z,99644.31
2023-01-11T05:52:14.291Z,99629.00
2023-01-11T05:54:42.696Z,99627.38
2023-01-11T05:57:11.995Z,99636.59
2023-01-11T05:59:40.399Z,99632.19
2023-01-11T06:02:08.935Z,99634.31
2023-01-11T06:04:38.876Z,99635.41
2023-01-11T06:07:09.919Z,99630.16
2023-01-11T06:09:38.364Z,99632.06
2023-01-11T06:12:07.251Z,99631.22
2023-01-11T06:14:38.024Z,99642.97
2023-01-11T06:17:06.663Z,99641.91
2023-01-11T06:19:35.121Z,99634.56
2023-01-11T06:22:04.918Z,99638.34
2023-01-11T06:24:33.391Z,99633.97
2023-01-11T06:27:01.792Z,99636.09
2023-01-11T06:29:30.232Z,99630.03
2023-01-11T06:31:58.946Z,99628.13
2023-01-11T06:34:27.543Z,99628.13
2023-01-11T06:36:55.953Z,99626.22
2023-01-11T06:39:25.715Z,99621.63
2023-01-11T06:41:54.126Z,99625.19
2023-01-11T06:44:22.706Z,99625.19
2023-01-11T06:46:51.121Z,99632.53
2023-01-11T06:49:19.625Z,99639.03
2023-01-11T06:51:48.017Z,99640.94
2023-01-11T06:54:21.985Z,99639.03
2023-01-11T06:56:51.783Z,99638.44
2023-01-11T06:59:20.202Z,99642.84
2023-01-11T07:01:48.714Z,99637.13
2023-01-11T07:04:18.719Z,99642.13
2023-01-11T07:06:47.366Z,99645.47
2023-01-11T07:09:15.788Z,99649.88
2023-01-11T07:11:44.177Z,99649.63
2023-01-11T07:14:19.825Z,99648.56
2023-01-11T07:16:48.294Z,99638.47
2023-01-11T07:19:18.168Z,99641.00
2023-01-11T07:21:46.572Z,99647.06
2023-01-11T07:24:15.234Z,99642.19
2023-01-11T07:26:43.901Z,99641.97
2023-01-11T07:29:13.832Z,99636.25
2023-01-11T07:31:42.282Z,99641.50
2023-01-11T07:34:10.724Z,99642.09
2023-01-11T07:36:39.762Z,99643.53
2023-01-11T07:39:08.824Z,99645.19
2023-01-11T07:41:54.832Z,99646.88
2023-01-11T07:44:24.637Z,99637.00
2023-01-11T07:46:53.127Z,99636.78
2023-01-11T07:49:21.609Z,99643.00
2023-01-11T07:51:52.120Z,99640.94
2023-01-11T07:54:20.779Z,99648.56
2023-01-11T07:56:49.275Z,99636.09
2023-01-11T07:59:18.056Z,99641.56
2023-01-11T08:01:47.804Z,99631.69
2023-01-11T08:04:16.872Z,99635.00
2023-01-11T08:06:45.265Z,99634.56
2023-01-11T08:09:13.974Z,99631.00
2023-01-11T08:11:59.861Z,99632.66
2023-01-11T08:14:40.651Z,99630.41
2023-01-11T08:17:12.793Z,99644.75
2023-01-11T08:19:41.656Z,99638.69
2023-01-11T08:22:10.945Z,99633.81
2023-01-11T08:24:39.550Z,99635.72
2023-01-11T08:27:08.113Z,99630.88
2023-01-11T08:29:37.107Z,99628.50
2023-01-11T08:32:06.080Z,99624.81
2023-01-11T08:34:36.299Z,99630.41
2023-01-11T08:37:05.422Z,99627.56
2023-01-11T08:39:33.907Z,99636.75
2023-01-11T08:42:03.595Z,99635.31
2023-01-11T08:44:34.707Z,99644.00
2023-01-11T08:47:03.916Z,99641.53
2023-01-11T08:49:32.457Z,99648.88
2023-01-11T08:52:02.385Z,99634.16
2023-01-11T08:54:30.826Z,99635.81
2023-01-11T08:56:59.333Z,99641.00
2023-01-11T08:59:27.795Z,99636.94
2023-01-11T09:01:56.583Z,99629.53
2023-01-11T09:04:25.923Z,99635.34
2023-01-11T09:06:55.219Z,99629.91
2023-01-11T09:09:25.155Z,99634.06
2023-01-11T09:11:57.051Z,99627.47
2023-01-11T09:14:27.955Z,99629.56
2023-01-11T09:16:57.685Z,99634.63
2023-01-11T09:19:26.384Z,99625.16
2023-01-11T09:21:58.279Z,99614.88
2023-01-11T09:24:28.201Z,99622.66
2023-01-11T09:26:59.215Z,99609.56
2023-01-11T09:29:28.134Z,99606.91
2023-01-11T09:31:56.636Z,99611.41
2023-01-11T09:34:27.324Z,99612.03
2023-01-11T09:36:56.801Z,99600.09
2023-01-11T09:39:27.601Z,99610.56
2023-01-11T09:42:31.737Z,99608.88
2023-01-11T09:45:09.508Z,99605.06
2023-01-11T09:47:43.331Z,99596.59
2023-01-11T09:50:20.660Z,99587.63
2023-01-11T09:52:53.471Z,99578.63
2023-01-11T09:55:32.037Z,99585.25
2023-01-11T09:58:46.728Z,99579.84
2023-01-11T10:01:20.752Z,99578.06
2023-01-11T10:04:36.826Z,99578.41
2023-01-11T10:07:24.713Z,99571.41
2023-01-11T10:18:39.408Z,99569.56
2023-01-11T10:19:35.891Z,99574.47
2023-01-11T10:22:15.873Z,99572.47
2023-01-11T10:24:50.735Z,99555.38
2023-01-11T10:27:30.058Z,99553.88
2023-01-11T10:30:13.722Z,99555.44
2023-01-11T10:32:54.354Z,99554.50
2023-01-11T10:35:45.718Z,99548.56
2023-01-11T10:38:42.736Z,99550.34
2023-01-11T10:41:26.425Z,99545.75
2023-01-11T10:44:11.949Z,99549.38
2023-01-11T10:46:46.126Z,99547.50
2023-01-11T10:49:40.229Z,99530.75
2023-01-11T10:52:25.860Z,99540.16
2023-01-11T10:54:57.353Z,99530.81
2023-01-11T10:57:59.314Z,99533.88
2023-01-11T11:00:40.531Z,99528.38
2023-01-11T11:03:45.571Z,99527.53
2023-01-11T11:06:29.876Z,99521.22
2023-01-11T11:09:09.459Z,99519.28
2023-01-11T11:11:42.653Z,99512.69
2023-01-11T11:14:19.039Z,99506.06
2023-01-11T11:17:05.127Z,99511.91
2023-01-11T11:19:34.886Z,99503.63
2023-01-11T11:22:04.735Z,99487.06
2023-01-11T11:24:38.635Z,99480.19
2023-01-11T11:27:18.917Z,99475.78
2023-01-11T11:29:53.796Z,99467.78
2023-01-11T11:32:28.391Z,99457.00
2023-01-11T11:34:57.013Z,99457.56
2023-01-11T11:37:32.827Z,99456.72
2023-01-11T11:40:01.466Z,99452.28
2023-01-11T11:42:30.015Z,99445.09
2023-01-11T11:45:18.763Z,99446.78
2023-01-11T11:48:03.626Z,99439.88
2023-01-11T11:50:44.329Z,99436.88
2023-01-11T11:53:30.657Z,99439.94
2023-01-11T11:55:59.305Z,99448.75
2023-01-11T11:58:28.726Z,99442.16
2023-01-11T12:00:57.201Z,99439.69
2023-01-11T12:03:30.768Z,99441.03
2023-01-11T12:06:02.654Z,99431.66
2023-01-11T12:08:35.623Z,99428.31
2023-01-11T12:11:07.769Z,99430.22
2023-01-11T12:13:39.098Z,99423.31
2023-01-11T12:16:21.757Z,99422.47
2023-01-11T12:18:50.882Z,99416.66
2023-01-11T12:21:22.695Z,99417.19
2023-01-11T12:24:14.002Z,99417.47
2023-01-11T12:26:54.937Z,99411.41
2023-01-11T12:30:05.352Z,99405.88
2023-01-11T12:33:12.142Z,99394.56
2023-01-11T12:35:55.898Z,99399.56
2023-01-11T12:38:38.705Z,99394.91
2023-01-11T12:41:47.544Z,99394.13
2023-01-11T12:44:34.210Z,99390.28
2023-01-11T12:47:36.076Z,99376.25
2023-01-11T12:50:18.444Z,99365.50
2023-01-11T12:53:07.928Z,99364.41
2023-01-11T12:55:51.496Z,99368.84
2023-01-11T12:58:30.946Z,99358.66
2023-01-11T13:01:26.417Z,99360.88
2023-01-11T13:04:48.569Z,99352.91
2023-01-11T13:07:41.796Z,99358.94
2023-01-11T13:10:36.507Z,99351.22
2023-01-11T13:13:13.391Z,99357.00
2023-01-11T13:15:56.819Z,99353.69
2023-01-11T13:18:38.284Z,99351.50
2023-01-11T13:21:25.473Z,99349.81
2023-01-11T13:23:58.228Z,99349.28
2023-01-11T13:26:31.610Z,99336.63
2023-01-11T13:29:04.429Z,99346.28
2023-01-11T13:31:36.043Z,99346.28
2023-01-11T13:34:13.822Z,99340.19
2023-01-11T13:36:48.911Z,99345.69
2023-01-11T13:39:28.536Z,99347.63
2023-01-11T13:42:00.427Z,99347.63
2023-01-11T13:44:37.167Z,99354.78
2023-01-11T13:47:16.941Z,99350.66
2023-01-11T13:50:01.307Z,99345.72
2023-01-11T13:52:49.607Z,99342.13
2023-01-11T13:55:26.606Z,99347.38
2023-01-11T13:58:03.095Z,99351.78
2023-01-11T14:00:39.749Z,99347.09
2023-01-11T14:03:23.842Z,99356.19
2023-01-11T14:06:09.681Z,99356.19
2023-01-11T14:09:25.746Z,99361.16
2023-01-11T14:12:04.420Z,99356.19
2023-01-11T14:15:09.405Z,99349.31
2023-01-11T14:18:09.001Z,99350.13
2023-01-11T14:20:48.895Z,99354.81
2023-01-11T14:23:20.148Z,99355.38
2023-01-11T14:26:45.853Z,99355.94
2023-01-11T14:29:59.327Z,99350.97
2023-01-11T14:33:21.980Z,99358.38
2023-01-11T14:36:22.943Z,99353.72
2023-01-11T14:39:22.081Z,99347.94
2023-01-11T14:42:35.473Z,99341.06
2023-01-11T14:45:31.182Z,99341.34
2023-01-11T14:48:25.674Z,99334.72
2023-01-11T14:51:32.440Z,99317.41
2023-01-11T14:54:08.112Z,99307.75
2023-01-11T14:56:53.307Z,99305.53
2023-01-11T14:59:40.418Z,99319.84
2023-01-11T15:02:26.407Z,99325.09
2023-01-11T15:05:13.418Z,99323.44
2023-01-11T15:07:43.788Z,99316.00
2023-01-11T15:10:58.673Z,99312.69
2023-01-11T15:13:32.590Z,99310.78
2023-01-11T15:16:28.720Z,99311.88
2023-01-11T15:18:58.107Z,99300.88
2023-01-11T15:21:28.284Z,99304.44
2023-01-11T15:23:59.772Z,99296.47
2023-01-11T15:26:29.097Z,99295.66
2023-01-11T15:28:59.440Z,99295.91
2023-01-11T15:31:39.267Z,99293.44
2023-01-11T15:34:26.082Z,99297.00
2023-01-11T15:37:15.565Z,99288.22
2023-01-11T15:39:52.648Z,99308.28
2023-01-11T15:43:08.555Z,99290.38
2023-01-11T15:46:49.683Z,99285.47
2023-01-11T15:50:28.479Z,99295.63
2023-01-11T15:53:32.012Z,99302.50
2023-01-11T15:57:02.994Z,99297.00
2023-01-11T16:00:20.043Z,99299.47
2023-01-11T16:03:25.515Z,99294.25
2023-01-11T16:06:05.558Z,99292.84
2023-01-11T16:08:40.837Z,99300.56
2023-01-11T16:11:22.834Z,99293.97
2023-01-11T16:14:15.257Z,99293.69
2023-01-11T16:16:45.135Z,99294.00
2023-01-11T16:19:20.040Z,99298.09
2023-01-11T16:21:51.411Z,99298.94
2023-01-11T16:24:23.010Z,99283.53
2023-01-11T16:26:55.776Z,99291.50
2023-01-11T16:29:30.112Z,99286.84
2023-01-11T16:32:01.996Z,99285.72
2023-01-11T16:34:41.016Z,99284.91
2023-01-11T16:37:24.125Z,99283.78
2023-01-11T16:39:56.960Z,99285.72
2023-01-11T16:42:28.555Z,99286.84
2023-01-11T16:45:02.311Z,99283.53
2023-01-11T16:47:30.804Z,99281.59
2023-01-11T16:50:25.248Z,99293.16
2023-01-11T16:52:55.636Z,99280.47
2023-01-11T16:55:31.123Z,99299.75
2023-01-11T16:58:03.504Z,99282.41
2023-01-11T17:00:38.313Z,99280.47
2023-01-11T17:03:23.951Z,99293.41
2023-01-11T17:06:20.857Z,99286.81
2023-01-11T17:08:52.324Z,99287.38
2023-01-11T17:11:33.411Z,99289.03
2023-01-11T17:14:39.129Z,99283.78
2023-01-11T17:17:11.912Z,99290.66
2023-01-11T17:19:47.153Z,99282.41
2023-01-11T17:22:23.037Z,99284.63
2023-01-11T17:24:55.837Z,99292.59
2023-01-11T17:27:29.370Z,99280.50
2023-01-11T17:29:59.291Z,99296.19
2023-01-11T17:32:37.485Z,99289.84
2023-01-11T17:35:14.922Z,99289.31
2023-01-11T17:37:45.419Z,99290.97
2023-01-11T17:40:24.802Z,99290.13
2023-01-11T17:43:12.268Z,99283.78
2023-01-11T17:45:40.941Z,99287.38
2023-01-11T17:48:16.692Z,99288.22
2023-01-11T17:50:50.501Z,99280.75
2023-01-11T17:53:26.858Z,99280.22
2023-01-11T17:55:58.402Z,99287.09
2023-01-11T17:58:28.587Z,99280.50
2023-01-11T18:01:21.682Z,99276.94
2023-01-11T18:03:54.456Z,99273.34
2023-01-11T18:06:32.127Z,99276.09
2023-01-11T18:09:03.733Z,99273.06
2023-01-11T18:11:36.366Z,99275.81
2023-01-11T18:14:08.431Z,99277.47
2023-01-11T18:16:37.072Z,99279.41
2023-01-11T18:19:25.829Z,99276.38
2023-01-11T18:21:55.879Z,99269.22
2023-01-11T18:24:45.199Z,99271.13
2023-01-11T18:27:31.820Z,99271.13
2023-01-11T18:30:07.880Z,99270.84
2023-01-11T18:32:42.102Z,99277.47
2023-01-11T18:35:19.328Z,99276.34
2023-01-11T18:37:48.505Z,99271.94
2023-01-11T18:40:21.705Z,99277.19
2023-01-11T18:42:53.324Z,99274.16
2023-01-11T18:45:24.981Z,99272.22
2023-01-11T18:47:54.154Z,99268.34
2023-01-11T18:50:25.054Z,99256.53
2023-01-11T18:52:54.124Z,99269.47
2023-01-11T18:55:22.642Z,99283.53
2023-01-11T18:57:51.355Z,99288.47
2023-01-11T19:00:21.945Z,99293.41
2023-01-11T19:05:26.597Z,99297.84
2023-01-11T19:07:55.909Z,99297.84
2023-01-11T19:10:25.683Z,99289.56
2023-01-11T19:12:57.263Z,99291.25
2023-01-11T19:15:26.243Z,99283.78
2023-01-11T19:17:55.372Z,99279.13
2023-01-11T19:20:26.348Z,99281.59
2023-01-11T19:22:55.544Z,99284.06
2023-01-11T19:25:25.190Z,99282.97
2023-01-11T19:27:55.030Z,99273.06
2023-01-11T19:30:24.169Z,99271.41
2023-01-11T19:32:53.726Z,99274.16
2023-01-11T19:35:23.984Z,99275.28
2023-01-11T19:37:55.034Z,99278.84
2023-01-11T19:40:24.562Z,99275.81
2023-01-11T19:42:53.604Z,99281.56
2023-01-11T19:45:22.885Z,99284.63
2023-01-11T19:47:52.089Z,99281.03
2023-01-11T19:50:21.099Z,99281.03
2023-01-11T19:52:49.671Z,99284.88
2023-01-11T19:55:20.823Z,99289.56
2023-01-11T19:57:49.545Z,99298.91
2023-01-11T20:00:20.678Z,99292.84
2023-01-11T20:02:49.536Z,99299.44
2023-01-11T20:05:18.948Z,99305.25
2023-01-11T20:07:50.068Z,99303.56
2023-01-11T20:10:21.631Z,99304.94
2023-01-11T20:12:50.492Z,99299.44
2023-01-11T20:15:19.243Z,99307.94
2023-01-11T20:17:47.969Z,99301.63
2023-01-11T20:20:17.203Z,99295.28
2023-01-11T20:22:47.231Z,99306.59
2023-01-11T20:25:17.831Z,99298.84
2023-01-11T20:27:48.524Z,99299.09
2023-01-11T20:30:19.161Z,99302.94
2023-01-11T20:32:48.643Z,99312.31
2023-01-11T20:35:17.698Z,99315.34
2023-01-11T20:37:46.852Z,99309.81
2023-01-11T20:40:15.901Z,99318.91
2023-01-11T20:42:45.715Z,99319.97
2023-01-11T20:45:16.206Z,99326.56
2023-01-11T20:47:45.653Z,99336.75
2023-01-11T20:50:14.313Z,99331.50
2023-01-11T20:52:43.109Z,99330.38
2023-01-11T20:55:12.207Z,99332.56
2023-01-11T20:57:40.921Z,99333.91
2023-01-11T21:00:14.753Z,99332.53
2023-01-11T21:02:44.636Z,99335.03
2023-01-11T21:05:13.256Z,99333.88
2023-01-11T21:07:41.735Z,99334.16
2023-01-11T21:10:11.958Z,99340.53
2023-01-11T21:12:40.458Z,99337.47
2023-01-11T21:15:10.927Z,99340.53
2023-01-11T21:17:39.429Z,99339.38
2023-01-11T21:20:11.578Z,99344.91
2023-01-11T21:22:40.081Z,99335.81
2023-01-11T21:25:10.438Z,99345.75
2023-01-11T21:27:39.094Z,99350.97
2023-01-11T21:30:09.716Z,99349.34
2023-01-11T21:32:38.174Z,99347.38
2023-01-11T21:35:09.365Z,99344.06
2023-01-11T21:37:37.821Z,99349.59
2023-01-11T21:40:08.114Z,99349.88
2023-01-11T21:42:36.625Z,99353.75
2023-01-11T21:45:06.578Z,99354.03
2023-01-11T21:47:35.098Z,99360.69
2023-01-11T21:50:03.843Z,99370.88
2023-01-11T21:52:33.735Z,99361.50
2023-01-11T21:55:02.279Z,99361.25
2023-01-11T21:57:30.734Z,99370.06
2023-01-11T21:59:59.214Z,99374.22
2023-01-11T22:02:27.693Z,99372.59
2023-01-11T22:04:57.814Z,99381.97
2023-01-11T22:07:27.265Z,99385.84
2023-01-11T22:10:04.557Z,99370.38
2023-01-11T22:12:35.175Z,99387.22
2023-01-11T22:15:03.897Z,99392.47
2023-01-11T22:17:32.351Z,99400.47
2023-01-11T22:20:00.909Z,99408.47
2023-01-11T22:22:29.372Z,99405.75
2023-01-11T22:24:59.716Z,99412.91
2023-01-11T22:27:28.203Z,99413.47
2023-01-11T22:29:56.690Z,99414.59
2023-01-11T22:32:25.685Z,99411.56
2023-01-11T22:34:54.138Z,99425.06
2023-01-11T22:37:22.677Z,99424.53
2023-01-11T22:39:51.184Z,99438.88
2023-01-11T22:42:21.026Z,99442.19
2023-01-11T22:44:49.805Z,99443.56
2023-01-11T22:47:18.250Z,99443.00
2023-01-11T22:49:46.687Z,99447.09
2023-01-11T22:52:15.115Z,99442.44
2023-01-11T22:54:43.635Z,99445.19
2023-01-11T22:57:12.037Z,99441.34
2023-01-11T22:59:41.821Z,99450.44
2023-01-11T23:02:10.335Z,99450.44
2023-01-11T23:04:38.793Z,99450.44
2023-01-11T23:07:07.279Z,99454.84
2023-01-11T23:09:35.789Z,99449.06
2023-01-11T23:12:21.929Z,99444.94
2023-01-11T23:14:51.768Z,99440.50
2023-01-11T23:17:20.662Z,99441.88
2023-01-11T23:19:49.799Z,99444.09
2023-01-11T23:22:18.254Z,99448.22
2023-01-11T23:24:46.766Z,99445.19
2023-01-11T23:27:15.242Z,99446.84
2023-01-11T23:29:43.723Z,99452.91
2023-01-11T23:32:13.807Z,99454.28
2023-01-11T23:34:42.238Z,99454.56
2023-01-11T23:37:10.680Z,99450.69
2023-01-11T23:39:39.165Z,99453.16
2023-01-11T23:42:24.873Z,99451.78
2023-01-11T23:44:53.495Z,99462.28
2023-01-11T23:47:23.995Z,99461.72
2023-01-11T23:49:54.316Z,99460.59
2023-01-11T23:52:25.812Z,99461.16
2023-01-11T23:54:54.698Z,99457.31
2023-01-11T23:57:24.775Z,99450.66
2023-01-11T23:59:53.456Z,99457.84
